createdAt,value
2023-01-02T00:01:35.837Z,11.40
2023-01-02T00:04:02.607Z,11.40
2023-01-02T00:06:33.939Z,11.40
2023-01-02T00:09:01.105Z,11.40
2023-01-02T00:11:28.229Z,11.40
2023-01-02T00:19:36.690Z,11.30
2023-01-02T00:22:03.290Z,11.30
2023-01-02T00:24:29.944Z,11.30
2023-01-02T00:26:56.502Z,11.30
2023-01-02T00:29:23.133Z,11.30
2023-01-02T00:31:49.755Z,11.20
2023-01-02T00:34:16.415Z,11.30
2023-01-02T00:36:43.042Z,11.20
2023-01-02T00:39:09.725Z,11.20
2023-01-02T00:41:36.341Z,11.10
2023-01-02T00:44:03.195Z,11.10
2023-01-02T00:46:29.892Z,11.10
2023-01-02T00:48:56.529Z,11.00
2023-01-02T00:51:23.170Z,11.00
2023-01-02T00:53:49.753Z,11.10
2023-01-02T00:56:16.354Z,11.10
2023-01-02T00:58:42.980Z,11.10
2023-01-02T01:01:09.681Z,11.10
2023-01-02T01:03:36.349Z,11.20
2023-01-02T01:06:08.271Z,11.10
2023-01-02T01:08:37.035Z,11.10
2023-01-02T01:11:12.479Z,11.20
2023-01-02T01:13:39.736Z,11.20
2023-01-02T01:16:12.133Z,11.20
2023-01-02T01:18:39.151Z,11.30
2023-01-02T01:21:07.845Z,11.40
2023-01-02T01:23:34.461Z,11.40
2023-01-02T01:26:05.060Z,11.30
2023-01-02T01:28:31.865Z,11.30
2023-01-02T01:31:06.097Z,11.40
2023-01-02T01:33:33.320Z,11.30
2023-01-02T01:36:05.081Z,11.40
2023-01-02T01:38:32.660Z,11.40
2023-01-02T01:41:00.597Z,11.30
2023-01-02T01:43:39.502Z,11.40
2023-01-02T01:46:36.730Z,11.40
2023-01-02T01:49:14.070Z,11.40
2023-01-02T01:51:50.836Z,11.40
2023-01-02T01:54:23.627Z,11.30
2023-01-02T01:56:54.162Z,11.40
2023-01-02T01:59:20.882Z,11.40
2023-01-02T02:01:49.833Z,11.40
2023-01-02T02:04:18.466Z,11.30
2023-01-02T02:06:45.359Z,11.40
2023-01-02T02:09:31.110Z,11.30
2023-01-02T02:11:57.838Z,11.30
2023-01-02T02:14:24.594Z,11.30
2023-01-02T02:17:01.177Z,11.10
2023-01-02T02:19:42.798Z,11.00
2023-01-02T02:22:21.166Z,11.00
2023-01-02T02:25:06.750Z,10.90
2023-01-02T02:28:21.917Z,10.80
2023-01-02T02:31:18.403Z,10.80
2023-01-02T02:33:56.166Z,10.70
2023-01-02T02:36:37.923Z,10.80
2023-01-02T02:39:27.626Z,10.60
2023-01-02T02:42:02.315Z,10.50
2023-01-02T02:44:41.169Z,10.50
2023-01-02T02:47:14.753Z,10.50
2023-01-02T02:50:09.467Z,10.60
2023-01-02T02:52:42.049Z,10.60
2023-01-02T02:55:25.997Z,10.60
2023-01-02T02:57:53.979Z,10.70
2023-01-02T03:00:23.515Z,10.70
2023-01-02T03:02:50.415Z,10.90
2023-01-02T03:05:25.552Z,10.90
2023-01-02T03:07:58.800Z,10.90
2023-01-02T03:10:46.357Z,11.00
2023-01-02T03:13:55.089Z,11.00
2023-01-02T03:16:28.429Z,11.20
2023-01-02T03:19:03.777Z,11.30
2023-01-02T03:21:46.151Z,11.40
2023-01-02T03:24:16.564Z,11.40
2023-01-02T03:26:47.609Z,11.40
2023-01-02T03:29:24.898Z,11.40
2023-01-02T03:31:55.951Z,11.40
2023-01-02T03:34:27.275Z,11.30
2023-01-02T03:36:58.440Z,11.30
2023-01-02T03:39:31.166Z,11.30
2023-01-02T03:42:07.815Z,11.20
2023-01-02T03:44:40.883Z,11.10
2023-01-02T03:47:31.518Z,11.10
2023-01-02T03:50:02.855Z,11.00
2023-01-02T03:52:29.547Z,11.00
2023-01-02T03:54:57.697Z,10.90
2023-01-02T03:57:39.326Z,10.80
2023-01-02T04:00:10.692Z,10.80
2023-01-02T04:03:04.500Z,10.80
2023-01-02T04:06:04.399Z,10.90
2023-01-02T04:08:37.113Z,10.90
2023-01-02T04:11:06.563Z,10.90
2023-01-02T04:13:40.821Z,11.00
2023-01-02T04:16:15.396Z,11.00
2023-01-02T04:18:50.849Z,11.00
2023-01-02T04:21:22.025Z,11.20
2023-01-02T04:23:58.175Z,11.20
2023-01-02T04:26:44.961Z,11.20
2023-01-02T04:29:11.767Z,11.20
2023-01-02T04:31:54.941Z,11.30
2023-01-02T04:34:23.821Z,11.30
2023-01-02T04:36:50.501Z,11.30
2023-01-02T04:39:20.992Z,11.20
2023-01-02T04:41:47.594Z,11.20
2023-01-02T04:44:14.262Z,11.20
2023-01-02T04:46:40.946Z,11.10
2023-01-02T04:49:07.591Z,11.10
2023-01-02T04:51:34.299Z,11.00
2023-01-02T04:54:00.978Z,11.00
2023-01-02T04:56:27.676Z,11.00
2023-01-02T04:58:54.299Z,11.00
2023-01-02T05:01:22.116Z,11.00
2023-01-02T05:03:51.324Z,10.90
2023-01-02T05:06:18.227Z,10.90
2023-01-02T05:08:44.842Z,10.90
2023-01-02T05:11:15.510Z,10.80
2023-01-02T05:13:42.471Z,10.90
2023-01-02T05:16:09.652Z,10.90
2023-01-02T05:18:36.600Z,10.90
2023-01-02T05:21:05.539Z,10.80
2023-01-02T05:23:50.478Z,10.80
2023-01-02T05:26:18.263Z,10.70
2023-01-02T05:28:45.106Z,10.70
2023-01-02T05:31:12.281Z,10.70
2023-01-02T05:33:39.206Z,10.70
2023-01-02T05:36:07.771Z,10.70
2023-01-02T05:38:35.582Z,10.70
2023-01-02T05:41:04.547Z,10.80
2023-01-02T05:43:32.406Z,10.70
2023-01-02T05:45:59.542Z,10.70
2023-01-02T05:48:27.858Z,10.80
2023-01-02T05:50:54.439Z,10.80
2023-01-02T05:53:21.049Z,10.90
2023-01-02T05:55:47.695Z,11.00
2023-01-02T05:58:14.509Z,11.10
2023-01-02T06:00:41.111Z,11.10
2023-01-02T06:03:07.817Z,11.20
2023-01-02T06:05:34.925Z,11.20
2023-01-02T06:08:01.797Z,11.20
2023-01-02T06:10:28.702Z,11.20
2023-01-02T06:12:55.346Z,11.20
2023-01-02T06:15:21.952Z,11.20
2023-01-02T06:17:48.551Z,11.20
2023-01-02T06:20:15.237Z,11.00
2023-01-02T06:22:41.941Z,11.00
2023-01-02T06:25:08.787Z,11.10
2023-01-02T06:27:35.493Z,11.00
2023-01-02T06:30:02.330Z,11.00
2023-01-02T06:32:29.697Z,11.00
2023-01-02T06:34:56.332Z,10.90
2023-01-02T06:37:22.948Z,10.90
2023-01-02T06:39:49.697Z,10.90
2023-01-02T06:42:16.296Z,10.90
2023-01-02T06:44:43.031Z,10.90
2023-01-02T06:47:09.612Z,10.80
2023-01-02T06:49:36.162Z,10.80
2023-01-02T06:52:02.785Z,10.80
2023-01-02T06:54:29.384Z,10.80
2023-01-02T06:56:56.059Z,10.70
2023-01-02T06:59:22.641Z,10.70
2023-01-02T07:01:49.412Z,10.70
2023-01-02T07:04:16.910Z,10.70
2023-01-02T07:06:43.531Z,10.80
2023-01-02T07:09:10.166Z,10.80
2023-01-02T07:11:38.330Z,10.80
2023-01-02T07:14:04.975Z,10.80
2023-01-02T07:16:31.747Z,10.80
2023-01-02T07:18:58.418Z,10.80
2023-01-02T07:21:25.108Z,10.80
2023-01-02T07:23:51.691Z,10.80
2023-01-02T07:26:18.871Z,10.90
2023-01-02T07:28:45.884Z,10.90
2023-01-02T07:31:15.316Z,11.00
2023-01-02T07:33:42.567Z,11.00
2023-01-02T07:36:13.259Z,11.00
2023-01-02T07:38:39.979Z,11.10
2023-01-02T07:41:17.572Z,11.10
2023-01-02T07:43:45.212Z,11.10
2023-01-02T07:46:13.017Z,11.10
2023-01-02T07:48:39.817Z,11.10
2023-01-02T07:51:07.695Z,11.00
2023-01-02T07:53:34.907Z,11.10
2023-01-02T07:56:02.189Z,11.10
2023-01-02T07:58:29.383Z,11.10
2023-01-02T08:01:01.465Z,11.20
2023-01-02T08:03:32.157Z,11.20
2023-01-02T08:06:27.975Z,11.20
2023-01-02T08:08:54.624Z,11.20
2023-01-02T08:11:22.484Z,11.30
2023-01-02T08:13:49.845Z,11.40
2023-01-02T08:16:18.857Z,11.30
2023-01-02T08:18:51.505Z,11.40
2023-01-02T08:21:18.360Z,11.40
2023-01-02T08:23:44.968Z,11.40
2023-01-02T08:26:11.951Z,11.40
2023-01-02T08:28:40.369Z,11.40
2023-01-02T08:31:15.944Z,11.40
2023-01-02T08:33:42.665Z,11.50
2023-01-02T08:36:09.869Z,11.50
2023-01-02T08:38:36.706Z,11.50
2023-01-02T08:41:03.892Z,11.50
2023-01-02T08:43:34.700Z,11.50
2023-01-02T08:46:06.653Z,11.60
2023-01-02T08:48:33.802Z,11.60
2023-01-02T08:51:00.472Z,11.60
2023-01-02T08:53:27.197Z,11.60
2023-01-02T08:55:53.832Z,11.60
2023-01-02T08:58:20.586Z,11.60
2023-01-02T09:00:47.212Z,11.60
2023-01-02T09:03:13.889Z,11.60
2023-01-02T09:05:40.519Z,11.50
2023-01-02T09:08:07.185Z,11.50
2023-01-02T09:10:33.892Z,11.50
2023-01-02T09:13:00.527Z,11.50
2023-01-02T09:15:27.340Z,11.50
2023-01-02T09:17:54.009Z,11.50
2023-01-02T09:20:20.660Z,11.50
2023-01-02T09:22:47.357Z,11.60
2023-01-02T09:25:17.538Z,11.60
2023-01-02T09:27:47.092Z,11.70
2023-01-02T09:30:13.924Z,11.80
2023-01-02T09:32:40.675Z,11.80
2023-01-02T09:35:07.831Z,11.90
2023-01-02T09:37:34.439Z,11.80
2023-01-02T09:40:01.057Z,11.80
2023-01-02T09:42:27.850Z,11.80
2023-01-02T09:45:06.287Z,11.70
2023-01-02T09:47:35.656Z,11.70
2023-01-02T09:50:05.983Z,11.80
2023-01-02T09:52:39.834Z,11.90
2023-01-02T09:55:17.733Z,11.90
2023-01-02T09:57:52.649Z,11.90
2023-01-02T10:00:22.230Z,11.80
2023-01-02T10:03:32.510Z,11.80
2023-01-02T10:06:06.729Z,11.80
2023-01-02T10:08:58.479Z,11.80
2023-01-02T10:12:05.625Z,11.60
2023-01-02T10:14:49.739Z,11.50
2023-01-02T10:17:17.518Z,11.40
2023-01-02T10:19:50.333Z,11.40
2023-01-02T10:22:22.291Z,11.30
2023-01-02T10:24:54.926Z,11.30
2023-01-02T10:27:28.364Z,11.20
2023-01-02T10:30:04.170Z,11.20
2023-01-02T10:32:33.000Z,11.20
2023-01-02T10:35:08.553Z,11.30
2023-01-02T10:37:35.989Z,11.30
2023-01-02T10:40:03.058Z,11.30
2023-01-02T10:42:32.458Z,11.40
2023-01-02T10:45:00.285Z,11.40
2023-01-02T10:47:39.341Z,11.50
2023-01-02T10:50:18.395Z,11.50
2023-01-02T10:53:03.961Z,11.50
2023-01-02T10:55:49.179Z,11.50
2023-01-02T10:58:22.671Z,11.60
2023-01-02T11:00:51.611Z,11.50
2023-01-02T11:03:27.444Z,11.50
2023-01-02T11:06:02.170Z,11.50
2023-01-02T11:08:39.598Z,11.40
2023-01-02T11:11:17.768Z,11.50
2023-01-02T11:13:54.341Z,11.40
2023-01-02T11:16:23.723Z,11.40
2023-01-02T11:18:55.470Z,11.40
2023-01-02T11:21:40.552Z,11.40
2023-01-02T11:24:19.495Z,11.30
2023-01-02T11:26:50.046Z,11.30
2023-01-02T11:29:34.642Z,11.30
2023-01-02T11:32:02.938Z,11.30
2023-01-02T11:34:40.491Z,11.30
2023-01-02T11:37:13.484Z,11.40
2023-01-02T11:39:41.322Z,11.30
2023-01-02T11:42:41.664Z,11.30
2023-01-02T11:45:17.246Z,11.20
2023-01-02T11:48:02.727Z,11.10
2023-01-02T11:50:33.903Z,11.10
2023-01-02T11:53:12.820Z,11.10
2023-01-02T11:56:10.353Z,11.00
2023-01-02T11:58:52.550Z,11.00
2023-01-02T12:01:28.284Z,11.00
2023-01-02T12:03:55.942Z,11.00
2023-01-02T12:06:32.235Z,11.00
2023-01-02T12:09:06.568Z,11.00
2023-01-02T12:12:06.160Z,11.00
2023-01-02T12:14:52.460Z,11.00
2023-01-02T12:17:58.317Z,11.00
2023-01-02T12:20:43.855Z,11.00
2023-01-02T12:23:36.602Z,10.90
2023-01-02T12:26:10.451Z,10.90
2023-01-02T12:28:48.535Z,10.90
2023-01-02T12:31:40.451Z,10.90
2023-01-02T12:34:31.902Z,10.90
2023-01-02T12:37:26.872Z,10.90
2023-01-02T12:40:43.635Z,10.90
2023-01-02T12:43:34.765Z,10.90
2023-01-02T12:46:21.157Z,10.90
2023-01-02T12:49:08.164Z,11.00
2023-01-02T12:51:43.006Z,10.90
2023-01-02T12:54:21.614Z,10.90
2023-01-02T12:56:57.470Z,10.90
2023-01-02T12:59:45.486Z,10.90
2023-01-02T13:02:37.104Z,10.90
2023-01-02T13:05:11.486Z,10.80
2023-01-02T13:07:46.795Z,10.80
2023-01-02T13:10:18.737Z,10.80
2023-01-02T13:12:47.796Z,10.80
2023-01-02T13:15:28.126Z,10.80
2023-01-02T13:18:14.537Z,10.70
2023-01-02T13:20:48.966Z,10.80
2023-01-02T13:23:29.282Z,10.80
2023-01-02T13:26:01.678Z,10.80
2023-01-02T13:28:28.600Z,10.80
2023-01-02T13:33:54.435Z,10.80
2023-01-02T13:36:25.486Z,10.80
2023-01-02T13:38:56.265Z,10.80
2023-01-02T13:41:23.424Z,10.80
2023-01-02T13:44:02.437Z,10.80
2023-01-02T13:47:01.912Z,10.80
2023-01-02T13:49:21.128Z,10.80
2023-01-02T13:51:47.927Z,10.80
2023-01-02T13:54:20.648Z,10.80
2023-01-02T13:57:18.281Z,10.80
2023-01-02T13:59:57.777Z,10.80
2023-01-02T14:02:24.719Z,10.70
2023-01-02T14:04:51.613Z,10.70
2023-01-02T14:07:27.517Z,10.70
2023-01-02T14:10:09.355Z,10.70
2023-01-02T14:13:00.324Z,10.70
2023-01-02T14:15:27.870Z,10.70
2023-01-02T14:18:04.370Z,10.70
2023-01-02T14:20:42.551Z,10.60
2023-01-02T14:23:23.058Z,10.70
2023-01-02T14:25:50.568Z,10.70
2023-01-02T14:28:34.562Z,10.70
2023-01-02T14:31:17.788Z,10.70
2023-01-02T14:33:54.241Z,10.70
2023-01-02T14:36:26.407Z,10.70
2023-01-02T14:38:56.540Z,10.70
2023-01-02T14:42:10.126Z,10.70
2023-01-02T14:45:08.978Z,10.60
2023-01-02T14:47:42.393Z,10.60
2023-01-02T14:50:21.034Z,10.60
2023-01-02T14:53:05.650Z,10.50
2023-01-02T14:55:41.383Z,10.50
2023-01-02T14:58:44.133Z,10.50
2023-01-02T15:01:15.249Z,10.50
2023-01-02T15:04:14.078Z,10.50
2023-01-02T15:06:48.913Z,10.50
2023-01-02T15:09:40.427Z,10.50
2023-01-02T15:12:56.629Z,10.50
2023-01-02T15:15:28.224Z,10.50
2023-01-02T15:18:01.387Z,10.50
2023-01-02T15:20:28.999Z,10.50
2023-01-02T15:22:56.562Z,10.50
2023-01-02T15:25:39.202Z,10.40
2023-01-02T15:28:21.458Z,10.40
2023-01-02T15:30:58.562Z,10.50
2023-01-02T15:33:30.023Z,10.40
2023-01-02T15:36:01.706Z,10.40
2023-01-02T15:38:28.549Z,10.40
2023-01-02T15:40:56.484Z,10.30
2023-01-02T15:43:44.318Z,10.30
2023-01-02T15:46:12.439Z,10.20
2023-01-02T15:48:40.305Z,10.20
2023-01-02T15:51:13.603Z,10.20
2023-01-02T15:53:42.901Z,10.20
2023-01-02T15:56:41.774Z,10.10
2023-01-02T15:59:24.643Z,10.10
2023-01-02T16:01:51.362Z,10.10
2023-01-02T16:04:27.120Z,10.10
2023-01-02T16:06:55.191Z,10.10
2023-01-02T16:09:31.186Z,10.00
2023-01-02T16:12:00.381Z,10.00
2023-01-02T16:14:45.619Z,10.00
2023-01-02T16:17:23.022Z,10.00
2023-01-02T16:19:54.675Z,9.90
2023-01-02T16:22:47.040Z,9.90
2023-01-02T16:25:28.817Z,9.90
2023-01-02T16:28:04.350Z,9.80
2023-01-02T16:31:05.863Z,9.70
2023-01-02T16:33:34.314Z,9.80
2023-01-02T16:36:03.742Z,9.80
2023-01-02T16:38:33.013Z,9.80
2023-01-02T16:41:04.659Z,9.80
2023-01-02T16:43:36.743Z,9.70
2023-01-02T16:46:12.032Z,9.70
2023-01-02T16:48:39.923Z,9.60
2023-01-02T16:51:06.604Z,9.60
2023-01-02T16:53:33.905Z,9.60
2023-01-02T16:56:00.575Z,9.60
2023-01-02T16:58:27.506Z,9.60
2023-01-02T17:00:55.496Z,9.50
2023-01-02T17:03:25.408Z,9.50
2023-01-02T17:06:02.374Z,9.50
2023-01-02T17:08:33.473Z,9.50
2023-01-02T17:11:00.959Z,9.50
2023-01-02T17:13:28.742Z,9.50
2023-01-02T17:15:55.999Z,9.50
2023-01-02T17:18:22.785Z,9.40
2023-01-02T17:20:49.614Z,9.40
2023-01-02T17:23:19.363Z,9.30
2023-01-02T17:25:46.372Z,9.30
2023-01-02T17:28:13.236Z,9.30
2023-01-02T17:30:44.177Z,9.20
2023-01-02T17:33:11.276Z,9.20
2023-01-02T17:35:38.123Z,9.20
2023-01-02T17:38:04.971Z,9.30
2023-01-02T17:40:31.691Z,9.30
2023-01-02T17:42:58.445Z,9.40
2023-01-02T17:45:25.157Z,9.30
2023-01-02T17:48:02.666Z,9.30
2023-01-02T17:50:32.691Z,9.30
2023-01-02T17:52:59.966Z,9.20
2023-01-02T17:55:26.585Z,9.20
2023-01-02T17:57:53.240Z,9.10
2023-01-02T18:00:23.075Z,9.10
2023-01-02T18:02:49.943Z,9.10
2023-01-02T18:05:16.674Z,9.00
2023-01-02T18:07:43.354Z,9.00
2023-01-02T18:10:11.728Z,9.00
2023-01-02T18:12:42.779Z,8.90
2023-01-02T18:21:00.556Z,8.90
2023-01-02T18:23:27.288Z,9.00
2023-01-02T18:25:54.029Z,9.00
2023-01-02T18:28:25.197Z,9.00
2023-01-02T18:30:57.389Z,9.00
2023-01-02T18:33:26.167Z,9.00
2023-01-02T18:35:59.367Z,8.90
2023-01-02T18:38:36.377Z,8.90
2023-01-02T18:41:22.906Z,9.00
2023-01-02T18:43:53.919Z,9.00
2023-01-02T18:47:02.151Z,9.00
2023-01-02T18:49:27.076Z,8.90
2023-01-02T18:52:25.094Z,8.90
2023-01-02T18:55:02.000Z,8.80
2023-01-02T18:57:34.513Z,8.80
2023-01-02T19:00:15.932Z,8.80
2023-01-02T19:03:00.421Z,8.70
2023-01-02T19:05:30.306Z,8.70
2023-01-02T19:08:21.369Z,8.70
2023-01-02T19:10:53.310Z,8.70
2023-01-02T19:13:25.537Z,8.60
2023-01-02T19:16:05.640Z,8.60
2023-01-02T19:18:43.566Z,8.60
2023-01-02T19:21:16.875Z,8.60
2023-01-02T19:23:43.482Z,8.50
2023-01-02T19:26:21.721Z,8.50
2023-01-02T19:28:54.101Z,8.50
2023-01-02T19:31:21.797Z,8.40
2023-01-02T19:33:57.474Z,8.40
2023-01-02T19:36:36.668Z,8.40
2023-01-02T19:39:48.832Z,8.30
2023-01-02T19:42:21.826Z,8.40
2023-01-02T19:44:54.151Z,8.30
2023-01-02T19:47:23.740Z,8.30
2023-01-02T19:49:51.553Z,8.30
2023-01-02T19:52:19.668Z,8.30
2023-01-02T19:54:46.979Z,8.30
2023-01-02T19:57:17.558Z,8.20
2023-01-02T19:59:45.460Z,8.20
2023-01-02T20:02:14.028Z,8.30
2023-01-02T20:04:41.717Z,8.20
2023-01-02T20:07:09.099Z,8.20
2023-01-02T20:09:36.229Z,8.20
2023-01-02T20:12:21.993Z,8.10
2023-01-02T20:14:48.638Z,8.10
2023-01-02T20:17:15.271Z,8.10
2023-01-02T20:19:41.999Z,8.00
2023-01-02T20:22:08.689Z,8.00
2023-01-02T20:24:35.414Z,8.00
2023-01-02T20:27:03.187Z,8.00
2023-01-02T20:29:30.951Z,8.00
2023-01-02T20:31:58.004Z,8.00
2023-01-02T20:34:24.710Z,8.00
2023-01-02T20:36:51.474Z,8.00
2023-01-02T20:39:18.221Z,8.00
2023-01-02T20:41:44.840Z,8.00
2023-01-02T20:44:13.540Z,8.00
2023-01-02T20:46:40.509Z,7.90
2023-01-02T20:49:07.885Z,7.90
2023-01-02T20:51:35.358Z,7.90
2023-01-02T20:54:03.023Z,7.90
2023-01-02T20:56:30.225Z,7.90
2023-01-02T20:58:57.185Z,7.90
2023-01-02T21:01:24.559Z,7.90
2023-01-02T21:03:51.735Z,7.90
2023-01-02T21:06:18.481Z,7.90
2023-01-02T21:08:45.149Z,7.90
2023-01-02T21:11:11.899Z,7.90
2023-01-02T21:13:38.639Z,7.80
2023-01-02T21:16:05.550Z,7.90
2023-01-02T21:18:34.819Z,7.80
2023-01-02T21:21:11.570Z,7.80
2023-01-02T21:23:39.869Z,7.90
2023-01-02T21:26:08.192Z,7.80
2023-01-02T21:28:35.667Z,7.80
2023-01-02T21:31:02.410Z,7.80
2023-01-02T21:33:29.757Z,7.80
2023-01-02T21:35:58.981Z,7.70
2023-01-02T21:38:27.252Z,7.60
2023-01-02T21:40:55.100Z,7.60
2023-01-02T21:43:22.845Z,7.60
2023-01-02T21:45:49.971Z,7.60
2023-01-02T21:48:16.677Z,7.50
2023-01-02T21:50:43.392Z,7.50
2023-01-02T21:53:10.045Z,7.50
2023-01-02T21:55:36.665Z,7.40
2023-01-02T21:58:18.666Z,7.30
2023-01-02T22:00:45.361Z,7.30
2023-01-02T22:03:12.143Z,7.30
2023-01-02T22:05:39.013Z,7.20
2023-01-02T22:08:05.950Z,7.20
2023-01-02T22:10:32.587Z,7.20
2023-01-02T22:12:59.926Z,7.10
2023-01-02T22:15:26.527Z,7.10
2023-01-02T22:17:53.215Z,7.00
2023-01-02T22:20:19.858Z,7.00
2023-01-02T22:22:46.438Z,7.00
2023-01-02T22:25:13.243Z,6.90
2023-01-02T22:27:39.961Z,6.80
2023-01-02T22:30:31.017Z,6.80
2023-01-02T22:32:54.634Z,6.70
2023-01-02T22:35:21.494Z,6.70
2023-01-02T22:37:48.247Z,6.70
2023-01-02T22:40:15.033Z,6.60
2023-01-02T22:43:09.469Z,6.60
2023-01-02T22:45:48.102Z,6.60
2023-01-02T22:48:22.870Z,6.60
2023-01-02T22:50:51.965Z,6.70
2023-01-02T22:53:25.708Z,6.60
2023-01-02T22:55:52.662Z,6.60
2023-01-02T22:58:19.745Z,6.60
2023-01-02T23:00:49.256Z,6.60
2023-01-02T23:03:16.725Z,6.60
2023-01-02T23:05:43.790Z,6.60
2023-01-02T23:08:10.663Z,6.50
2023-01-02T23:10:37.702Z,6.50
2023-01-02T23:13:04.356Z,6.40
2023-01-02T23:15:31.088Z,6.40
2023-01-02T23:18:16.325Z,6.30
2023-01-02T23:20:42.953Z,6.30
2023-01-02T23:23:09.607Z,6.20
2023-01-02T23:25:40.994Z,6.10
2023-01-02T23:28:07.740Z,6.10
2023-01-02T23:30:34.365Z,6.10
2023-01-02T23:33:01.204Z,6.00
2023-01-02T23:35:27.809Z,6.00
2023-01-02T23:37:54.488Z,5.90
2023-01-02T23:40:21.060Z,5.80
2023-01-02T23:42:47.697Z,5.80
2023-01-02T23:45:14.359Z,5.80
2023-01-02T23:47:41.009Z,5.80
2023-01-02T23:50:07.928Z,5.70
2023-01-02T23:52:34.633Z,5.70
2023-01-02T23:55:01.230Z,5.70
2023-01-02T23:57:27.860Z,5.70
2023-01-02T23:59:54.445Z,5.70
